Time;durP1;ratioP1;P1;durP2;ratioP2;P2;SDS_P1;SDS_P2;PMS_P1;PMS_P2;Temp;Humidity;BMP_temperature;BMP_pressure;BME280_temperature;BME280_humidity;BME280_pressure;Samples;Min_cycle;Max_cycle;Signal;HPM_P1;HPM_P2
2022/02/10 00:13:19;;;;;;;19.70;12.97;;;6.40;1.00;7.00;101088.00;;;;5062699;28;20471;-82
2022/02/10 00:14:20;;;;;;;14.13;11.43;;;6.50;1.00;7.10;101088.00;;;;5063442;28;20468;-82
2022/02/10 00:17:05;;;;;;;14.60;11.60;;;6.50;1.00;7.20;101089.00;;;;5064524;28;20457;-82
2022/02/10 00:19:48;;;;;;;16.00;10.90;;;6.50;1.00;7.10;101085.00;;;;5064493;28;21113;-82
2022/02/10 00:22:23;;;;;;;15.00;11.47;;;6.50;1.00;7.30;101074.00;;;;5059325;28;20995;-83
2022/02/10 00:36:14;;;;;;;13.00;10.30;;;6.80;1.00;7.20;101067.00;;;;5004199;28;20445;-82
2022/02/10 00:38:49;;;;;;;11.57;10.37;;;6.80;1.00;7.30;101075.00;;;;5020627;28;20480;-82
2022/02/10 00:41:18;;;;;;;13.50;9.87;;;6.70;1.00;7.30;101086.00;;;;5038126;28;20560;-83
2022/02/10 00:43:46;;;;;;;12.77;10.40;;;6.70;1.00;7.20;101050.00;;;;5088297;28;20501;-82
2022/02/10 00:46:15;;;;;;;14.40;10.60;;;6.70;1.00;7.20;101066.00;;;;5067787;28;20448;-82
2022/02/10 00:48:43;;;;;;;15.03;10.97;;;6.90;1.00;7.30;101059.00;;;;5061135;28;20494;-82
2022/02/10 00:51:14;;;;;;;13.40;10.10;;;6.80;1.00;7.30;101082.00;;;;5065513;28;20519;-81
2022/02/10 00:53:43;;;;;;;12.83;9.77;;;7.10;1.00;7.30;101044.00;;;;5063772;28;20448;-81
2022/02/10 00:56:13;;;;;;;13.37;10.07;;;6.70;1.00;7.30;101058.00;;;;5058337;28;20462;-82
2022/02/10 00:58:45;;;;;;;12.87;9.40;;;6.70;1.00;7.30;101042.00;;;;5078531;28;20454;-83
2022/02/10 01:07:06;;;;;;;11.23;10.03;;;6.60;1.00;7.00;101069.00;;;;5094033;28;20495;-83
2022/02/10 01:12:29;;;;;;;14.13;11.00;;;6.40;1.00;6.70;101040.00;;;;5078096;28;20486;-82
2022/02/10 01:31:38;;;;;;;18.70;13.90;;;6.00;1.00;6.50;101005.00;;;;5056494;28;20969;-80
2022/02/10 01:34:07;;;;;;;16.67;14.23;;;6.00;1.00;6.50;101009.00;;;;5055085;28;20448;-81
2022/02/10 01:36:35;;;;;;;14.23;11.93;;;6.00;1.00;6.50;101002.00;;;;5054373;28;20456;-79
2022/02/10 01:39:07;;;;;;;15.00;12.20;;;6.00;1.00;6.50;101001.00;;;;5053618;28;20488;-80
2022/02/10 01:58:35;;;;;;;17.10;13.33;;;5.80;1.00;6.50;100884.00;;;;5057501;28;20669;-80
2022/02/10 02:03:50;;;;;;;19.17;14.60;;;5.90;1.00;6.40;100907.00;;;;5041247;28;20526;-81
2022/02/10 02:06:23;;;;;;;19.07;17.07;;;5.80;1.00;6.10;100899.00;;;;5040186;28;21353;-81
2022/02/10 02:08:53;;;;;;;16.70;14.50;;;5.80;1.00;6.00;100920.00;;;;5070793;28;21266;-80
2022/02/10 02:11:27;;;;;;;17.20;15.13;;;5.70;1.00;6.00;100875.00;;;;5073064;28;20843;-81
2022/02/10 02:13:55;;;;;;;17.87;15.30;;;5.60;1.00;6.10;100885.00;;;;5059649;28;20443;-81
2022/02/10 02:16:26;;;;;;;20.30;15.60;;;5.60;1.00;6.10;100885.00;;;;5056381;28;20816;-81
2022/02/10 02:18:54;;;;;;;16.13;14.10;;;5.50;1.00;6.10;100867.00;;;;5069875;28;20483;-80
2022/02/10 02:21:24;;;;;;;20.40;15.10;;;5.60;1.00;6.10;100881.00;;;;5052980;28;20458;-80
2022/02/10 02:23:53;;;;;;;18.93;14.30;;;5.60;1.00;6.20;100899.00;;;;5038690;28;20455;-81
2022/02/10 02:26:25;;;;;;;20.20;14.43;;;5.60;1.00;6.30;100893.00;;;;5057327;28;20461;-80
2022/02/10 02:28:57;;;;;;;16.10;12.83;;;5.90;1.00;6.40;100902.00;;;;5052961;28;20478;-79
2022/02/10 02:31:31;;;;;;;14.80;12.50;;;5.70;1.00;6.30;100856.00;;;;5052550;28;20465;-81
2022/02/10 03:05:04;;;;;;;13.53;12.13;;;6.10;1.00;6.70;100878.00;;;;5058888;28;20455;-80
2022/02/10 03:07:43;;;;;;;13.73;12.33;;;6.10;1.00;6.70;100820.00;;;;5062592;28;20466;-81
2022/02/10 03:12:59;;;;;;;13.90;11.37;;;6.10;1.00;6.70;100852.00;;;;5064379;28;20464;-82
2022/02/10 03:15:33;;;;;;;18.23;12.47;;;6.10;1.00;6.70;100864.00;;;;5063599;28;20457;-81
2022/02/10 03:18:18;;;;;;;12.47;11.27;;;6.10;1.00;6.70;100854.00;;;;5055991;28;20967;-82
2022/02/10 03:21:09;;;;;;;14.73;13.23;;;6.50;1.00;6.60;100833.00;;;;5060146;28;20459;-82
2022/02/10 04:03:07;;;;;;;16.10;12.33;;;5.90;1.00;6.30;100832.00;;;;5058372;28;20452;-82
2022/02/10 04:08:48;;;;;;;14.87;12.10;;;5.90;1.00;6.40;100847.00;;;;5045615;28;20462;-81
2022/02/10 04:11:33;;;;;;;20.60;13.33;;;5.90;1.00;6.40;100856.00;;;;5058785;28;20558;-81
2022/02/10 04:14:10;;;;;;;13.60;12.20;;;5.90;1.00;6.40;100855.00;;;;5061161;28;20546;-82
2022/02/10 04:16:43;;;;;;;15.87;12.53;;;5.90;1.00;6.30;100829.00;;;;5061627;28;20451;-82
2022/02/10 04:22:13;;;;;;;14.30;12.37;;;5.90;1.00;6.20;100803.00;;;;5046049;28;20490;-81
2022/02/10 04:25:06;;;;;;;14.50;12.73;;;5.80;1.00;6.40;100821.00;;;;5057651;28;20456;-82
2022/02/10 04:27:59;;;;;;;15.07;12.70;;;5.80;1.00;6.30;100810.00;;;;5040614;28;20455;-82
2022/02/10 04:30:49;;;;;;;16.00;11.83;;;5.90;1.00;6.10;100799.00;;;;5057749;28;20471;-80
2022/02/10 04:39:58;;;;;;;19.93;15.00;;;5.70;1.00;6.10;100823.00;;;;5028725;28;21539;-81
2022/02/10 04:59:29;;;;;;;17.17;12.73;;;5.60;1.00;6.00;100808.00;;;;5044312;28;20824;-81
2022/02/10 05:02:22;;;;;;;14.33;12.67;;;5.60;1.00;6.10;100785.00;;;;5053334;28;20459;-81
2022/02/10 05:08:19;;;;;;;17.70;12.67;;;5.60;1.00;6.20;100815.00;;;;5053361;28;20475;-81
2022/02/10 05:16:28;;;;;;;14.13;12.53;;;5.70;1.00;6.20;100789.00;;;;5013824;28;20480;-81
2022/02/10 05:19:31;;;;;;;13.40;11.97;;;5.70;1.00;6.20;100799.00;;;;5052232;28;20480;-82
2022/02/10 05:33:30;;;;;;;14.30;12.07;;;5.50;1.00;6.10;100791.00;;;;5106514;28;20452;-80
2022/02/10 05:36:02;;;;;;;16.93;13.80;;;5.60;1.00;6.20;100765.00;;;;5096290;28;20471;-80
2022/02/10 05:38:34;;;;;;;15.30;12.00;;;5.60;1.00;6.10;100797.00;;;;5106118;27;20488;-80
2022/02/10 05:43:54;;;;;;;14.10;11.90;;;5.60;1.00;6.00;100801.00;;;;5105331;28;20479;-81
2022/02/10 05:46:49;;;;;;;16.23;12.43;;;5.60;1.00;6.10;100792.00;;;;5107795;28;20452;-80
2022/02/10 05:49:51;;;;;;;14.90;12.03;;;5.60;1.00;6.10;100794.00;;;;5122726;27;20476;-79
2022/02/10 05:52:50;;;;;;;15.03;11.73;;;5.60;1.00;6.10;100786.00;;;;5103809;27;20460;-79
2022/02/10 05:55:39;;;;;;;13.90;12.00;;;5.50;1.00;6.00;100775.00;;;;5111928;27;20445;-79
2022/02/10 05:58:15;;;;;;;12.80;11.40;;;5.50;1.00;6.00;100784.00;;;;5105428;28;20448;-79
2022/02/10 06:51:19;;;;;;;18.90;13.07;;;6.70;1.00;7.00;100812.00;;;;5083426;27;20470;-81
2022/02/10 06:53:58;;;;;;;17.97;12.60;;;6.70;1.00;7.00;100800.00;;;;5090650;28;20892;-80
2022/02/10 07:07:57;;;;;;;16.63;12.00;;;6.90;1.00;7.30;100773.00;;;;5105748;28;20458;-80
2022/02/10 07:10:39;;;;;;;11.73;10.20;;;7.00;1.00;7.30;100787.00;;;;5092368;28;21055;-80
2022/02/10 07:55:23;;;;;;;14.47;10.50;;;7.50;1.00;7.90;100761.00;;;;4994904;28;20458;-79
2022/02/10 07:58:09;;;;;;;18.57;12.20;;;7.50;1.00;7.90;100782.00;;;;5009305;28;20488;-79
2022/02/10 08:04:10;;;;;;;14.20;11.53;;;7.60;1.00;7.90;100763.00;;;;5011641;28;20482;-80
2022/02/10 08:57:09;;;;;;;12.57;9.53;;;7.90;1.00;8.40;100786.00;;;;4997867;28;20453;-80
2022/02/10 09:03:06;;;;;;;15.43;10.13;;;8.20;1.00;8.50;100805.00;;;;4983135;28;20546;-80
2022/02/10 09:05:56;;;;;;;19.03;10.50;;;8.20;1.00;8.60;100826.00;;;;5000159;28;20462;-80
2022/02/10 09:12:01;;;;;;;13.00;8.90;;;8.30;1.00;8.50;100811.00;;;;4997799;28;20450;-80
2022/02/10 09:14:42;;;;;;;16.40;10.33;;;8.30;1.00;8.60;100830.00;;;;4999726;28;20469;-80
2022/02/10 09:20:20;;;;;;;16.23;10.63;;;8.50;1.00;8.70;100795.00;;;;4997312;28;20493;-79
2022/02/10 09:57:09;;;;;;;11.60;9.50;;;8.50;1.00;8.90;100865.00;;;;5011746;28;20463;-79
2022/02/10 09:59:57;;;;;;;13.70;9.77;;;8.50;1.00;8.70;100862.00;;;;5007756;28;20508;-81
2022/02/10 10:02:32;;;;;;;11.53;10.30;;;8.50;1.00;8.70;100871.00;;;;5004830;28;20943;-81
2022/02/10 10:05:08;;;;;;;12.50;9.03;;;8.40;1.00;8.80;100874.00;;;;5003574;28;20529;-82
2022/02/10 10:10:47;;;;;;;15.03;10.37;;;8.40;1.00;8.80;100877.00;;;;5009574;28;20520;-81
2022/02/10 10:13:46;;;;;;;12.70;9.40;;;8.50;1.00;8.80;100879.00;;;;4996287;28;20450;-80
2022/02/10 10:16:37;;;;;;;15.00;9.70;;;8.50;1.00;8.80;100866.00;;;;5023619;28;20592;-81
2022/02/10 10:19:15;;;;;;;15.43;9.43;;;8.50;1.00;8.80;100873.00;;;;5005719;28;20578;-81
2022/02/10 10:21:49;;;;;;;16.73;9.50;;;8.70;1.00;8.80;100874.00;;;;5018255;28;20502;-81
2022/02/10 10:24:44;;;;;;;11.37;9.33;;;8.40;1.00;8.90;100872.00;;;;5023132;28;20569;-81
2022/02/10 10:27:34;;;;;;;12.00;9.40;;;8.50;1.00;8.90;100865.00;;;;5012362;28;20455;-79
2022/02/10 10:44:47;;;;;;;13.53;10.80;;;8.50;1.00;8.90;100861.00;;;;5016995;28;20469;-82
2022/02/10 10:50:01;;;;;;;11.37;10.27;;;8.50;1.00;9.00;100878.00;;;;4995039;28;20549;-81
2022/02/10 10:52:50;;;;;;;15.83;10.10;;;8.60;1.00;9.00;100885.00;;;;5014187;28;20487;-80
2022/02/10 10:55:44;;;;;;;13.30;10.67;;;8.70;1.00;9.10;100889.00;;;;5001936;28;20554;-80
2022/02/10 10:58:19;;;;;;;15.90;10.90;;;8.80;1.00;9.10;100878.00;;;;4997250;28;24155;-80
2022/02/10 11:04:00;;;;;;;13.03;10.43;;;8.70;1.00;9.10;100877.00;;;;5018117;28;20477;-80
2022/02/10 11:38:25;;;;;;;10.77;9.73;;;8.70;1.00;9.10;100867.00;;;;4995189;28;20546;-80
2022/02/10 11:41:33;;;;;;;14.23;10.07;;;8.80;1.00;9.10;100859.00;;;;4983472;28;20468;-79
2022/02/10 13:03:20;;;;;;;14.20;8.17;;;9.80;1.00;52.70;160972.00;;;;4998397;28;20457;-82
2022/02/10 13:26:55;;;;;;;10.17;7.57;;;9.50;1.00;10.10;100867.00;;;;5017223;28;20477;-82
2022/02/10 14:11:46;;;;;;;6.97;5.73;;;9.70;1.00;10.20;100870.00;;;;5003176;28;20478;-82
2022/02/10 14:14:12;;;;;;;6.57;5.87;;;9.70;1.00;10.30;100859.00;;;;4998762;28;20526;-83
2022/02/10 14:16:47;;;;;;;6.43;5.83;;;9.80;1.00;10.00;68507.00;;;;5004247;28;20472;-82
2022/02/10 14:19:19;;;;;;;6.33;5.73;;;9.90;1.00;10.40;100861.00;;;;5001129;28;20608;-81
2022/02/10 14:22:08;;;;;;;6.43;5.73;;;10.00;1.00;10.60;100870.00;;;;5005108;28;20499;-84
2022/02/10 14:27:25;;;;;;;6.63;6.00;;;10.10;1.00;10.70;100879.00;;;;5016799;28;20458;-83
2022/02/10 14:29:55;;;;;;;10.77;6.03;;;10.20;1.00;10.70;100862.00;;;;5010975;28;20500;-83
2022/02/10 14:32:31;;;;;;;9.70;6.17;;;10.20;1.00;10.50;100864.00;;;;5015222;28;21033;-82
2022/02/10 14:35:10;;;;;;;9.00;5.90;;;10.10;1.00;10.60;100856.00;;;;5018554;28;20441;-84
2022/02/10 14:38:07;;;;;;;9.33;6.43;;;10.20;1.00;10.70;100873.00;;;;5019046;28;20444;-81
2022/02/10 14:41:02;;;;;;;6.63;5.93;;;10.30;1.00;10.70;100873.00;;;;5002827;28;20478;-82
2022/02/10 15:10:49;;;;;;;9.30;6.77;;;10.30;1.00;10.70;100881.00;;;;5016564;28;20458;-81
2022/02/10 16:18:50;;;;;;;12.37;11.17;;;9.10;1.00;9.50;100861.00;;;;5086012;28;20532;-82
2022/02/10 16:21:32;;;;;;;11.70;9.83;;;9.30;1.00;9.40;100884.00;;;;5074741;28;20822;-82
2022/02/10 16:24:05;;;;;;;12.27;11.07;;;8.90;1.00;9.30;100835.00;;;;5097286;28;20464;-82
2022/02/10 16:26:41;;;;;;;12.87;11.57;;;9.20;1.00;9.40;100880.00;;;;5079222;28;20446;-81
2022/02/10 16:29:16;;;;;;;13.53;11.17;;;8.90;1.00;9.30;100879.00;;;;5075471;28;20466;-81
2022/02/10 16:31:45;;;;;;;13.33;11.97;;;8.80;1.00;9.30;100881.00;;;;5099357;28;20450;-85
2022/02/10 16:34:19;;;;;;;14.30;10.40;;;9.00;1.00;9.20;100849.00;;;;5090276;28;20464;-83
2022/02/10 16:36:47;;;;;;;13.00;11.60;;;8.80;1.00;9.20;100847.00;;;;5104638;28;20454;-83
2022/02/10 16:39:18;;;;;;;12.77;11.33;;;8.80;1.00;9.20;100894.00;;;;5091988;28;20470;-83
2022/02/10 16:41:51;;;;;;;13.90;11.80;;;8.70;1.00;9.10;100870.00;;;;5112121;28;20426;-84
2022/02/10 16:44:26;;;;;;;13.20;11.80;;;8.60;1.00;9.00;100870.00;;;;5100350;28;20442;-82
2022/02/10 16:46:54;;;;;;;15.70;12.27;;;8.60;1.00;9.00;100888.00;;;;5093290;28;20442;-82
2022/02/10 16:49:28;;;;;;;14.20;12.43;;;8.80;1.00;9.00;100890.00;;;;5100727;28;20498;-83
2022/02/10 16:51:58;;;;;;;12.63;11.33;;;8.50;1.00;8.90;100877.00;;;;5107103;28;20724;-83
2022/02/10 16:54:35;;;;;;;12.47;11.17;;;8.50;1.00;8.80;100892.00;;;;5096128;28;20446;-84
2022/02/10 16:57:08;;;;;;;11.63;10.43;;;8.30;1.00;8.80;100896.00;;;;5113427;28;20452;-86
2022/02/10 16:59:50;;;;;;;12.47;11.17;;;8.30;1.00;8.80;100890.00;;;;5096028;28;20447;-83
2022/02/10 17:02:33;;;;;;;12.97;10.27;;;8.30;1.00;8.80;100883.00;;;;5093756;28;20438;-81
2022/02/10 17:05:34;;;;;;;11.87;10.33;;;8.20;1.00;8.80;100898.00;;;;5094221;28;20439;-85
2022/02/10 17:19:27;;;;;;;12.63;9.97;;;8.60;1.00;9.00;100922.00;;;;5085402;28;20486;-82
2022/02/10 17:27:31;;;;;;;12.03;10.70;;;8.50;1.00;8.90;100937.00;;;;5080299;28;20814;-82
2022/02/10 17:30:54;;;;;;;13.70;11.20;;;8.60;1.00;9.10;100926.00;;;;5064346;28;20468;-82
2022/02/10 17:33:29;;;;;;;13.87;11.77;;;8.60;1.00;9.00;100924.00;;;;5087902;28;20472;-83
2022/02/10 17:36:08;;;;;;;12.70;11.40;;;8.50;1.00;9.10;100915.00;;;;5070837;28;20537;-83
2022/02/10 17:41:48;;;;;;;12.90;11.60;;;8.60;1.00;9.00;100902.00;;;;5086631;28;20530;-83
2022/02/10 17:52:45;;;;;;;15.40;13.80;;;8.20;1.00;8.60;100941.00;;;;5067528;28;20440;-82
2022/02/10 17:55:18;;;;;;;17.07;14.20;;;8.10;1.00;8.50;100938.00;;;;5072389;28;20463;-83
2022/02/10 17:57:46;;;;;;;19.40;15.57;;;8.00;1.00;8.50;100907.00;;;;5096993;28;20444;-83
2022/02/10 18:00:17;;;;;;;16.17;14.47;;;8.00;1.00;8.50;100938.00;;;;5098733;28;20528;-83
2022/02/10 18:02:46;;;;;;;18.07;16.17;;;8.00;1.00;8.40;100953.00;;;;5100221;28;20455;-83
2022/02/10 18:05:40;;;;;;;18.43;15.77;;;8.00;1.00;8.30;100942.00;;;;5096211;28;20444;-83
2022/02/10 18:08:10;;;;;;;17.27;12.93;;;7.80;1.00;8.20;100939.00;;;;5075022;28;20439;-82
2022/02/10 18:13:36;;;;;;;22.97;20.13;;;7.70;1.00;8.20;100950.00;;;;5090209;28;20515;-84
2022/02/10 18:16:11;;;;;;;23.17;18.40;;;7.70;1.00;8.20;100872.00;;;;5094469;28;20466;-84
2022/02/10 18:18:44;;;;;;;22.83;18.50;;;7.60;1.00;8.10;100943.00;;;;5068874;28;20609;-82
2022/02/10 18:21:31;;;;;;;22.77;18.67;;;7.60;1.00;8.20;100931.00;;;;5064004;28;20423;-83
2022/02/10 18:24:07;;;;;;;20.50;17.80;;;7.60;1.00;8.10;100937.00;;;;5077741;28;20451;-83
2022/02/10 18:26:58;;;;;;;24.80;18.93;;;7.70;1.00;8.00;100938.00;;;;5075199;28;21435;-83
2022/02/10 18:29:59;;;;;;;23.00;19.73;;;7.70;1.00;8.00;100935.00;;;;5067647;28;21070;-83
2022/02/10 19:06:43;;;;;;;23.10;19.87;;;7.40;1.00;7.90;100905.00;;;;5054915;28;20455;-84
2022/02/10 19:09:08;;;;;;;24.33;21.30;;;7.40;1.00;7.90;100916.00;;;;5056053;28;20479;-82
2022/02/10 19:11:45;;;;;;;25.77;20.83;;;7.40;1.00;8.00;100926.00;;;;5045813;28;20574;-83
2022/02/10 19:14:16;;;;;;;26.40;21.43;;;7.50;1.00;7.90;100891.00;;;;5065143;28;20487;-84
2022/02/10 19:16:46;;;;;;;24.10;20.83;;;7.40;1.00;7.90;100906.00;;;;5050587;28;20479;-82
2022/02/10 19:19:15;;;;;;;26.47;21.47;;;7.40;1.00;7.90;100893.00;;;;5072534;28;20467;-83
2022/02/10 19:21:44;;;;;;;27.60;19.93;;;7.60;1.00;8.00;100914.00;;;;5072544;28;20477;-84
2022/02/10 19:24:12;;;;;;;27.03;21.77;;;7.60;1.00;8.00;100919.00;;;;5069559;28;20538;-84
2022/02/10 19:26:42;;;;;;;25.37;21.03;;;7.60;1.00;8.00;100910.00;;;;5066249;28;20463;-84
2022/02/10 19:29:16;;;;;;;24.60;19.83;;;7.50;1.00;8.00;100902.00;;;;5069619;28;20463;-82
2022/02/10 19:31:45;;;;;;;26.50;21.47;;;7.60;1.00;8.10;100910.00;;;;5069529;28;20569;-86
2022/02/10 19:34:14;;;;;;;24.30;20.60;;;7.60;1.00;8.00;100938.00;;;;5070413;28;20454;-84
2022/02/10 19:36:59;;;;;;;22.73;18.77;;;7.50;1.00;8.00;67971.00;;;;5071302;28;20517;-83
2022/02/10 19:39:27;;;;;;;23.00;19.20;;;7.60;1.00;7.90;100876.00;;;;5069996;28;20486;-82
2022/02/10 19:41:57;;;;;;;26.30;20.87;;;7.50;1.00;8.00;100900.00;;;;5052806;28;20456;-81
2022/02/10 19:44:26;;;;;;;23.40;19.50;;;7.50;1.00;8.00;100904.00;;;;5063021;28;21000;-81
2022/02/10 19:46:57;;;;;;;25.27;20.33;;;7.50;1.00;8.00;100844.00;;;;5071995;28;20493;-85
2022/02/10 19:49:26;;;;;;;24.13;19.90;;;7.60;1.00;8.10;100884.00;;;;5068095;28;20502;-83
2022/02/10 19:51:54;;;;;;;21.73;19.17;;;7.70;1.00;8.00;100909.00;;;;5072460;28;20457;-85
2022/02/10 19:54:26;;;;;;;21.40;18.30;;;7.60;1.00;8.00;100886.00;;;;5072982;28;20530;-84
2022/02/10 19:56:58;;;;;;;19.87;17.70;;;7.50;1.00;8.00;100899.00;;;;5068600;28;20510;-84
2022/02/10 19:59:30;;;;;;;21.57;17.67;;;7.60;1.00;8.00;100880.00;;;;5072356;28;20517;-84
2022/02/10 20:01:58;;;;;;;19.60;16.97;;;7.60;1.00;8.00;100908.00;;;;5067318;28;20488;-84
2022/02/10 20:04:27;;;;;;;20.73;17.27;;;7.50;1.00;8.00;100900.00;;;;5068056;28;20450;-84
2022/02/10 20:06:56;;;;;;;17.57;15.73;;;7.50;1.00;8.00;100891.00;;;;5068145;28;20455;-85
2022/02/10 20:09:24;;;;;;;17.90;15.40;;;7.50;1.00;8.00;100890.00;;;;5065798;28;20493;-82
2022/02/10 20:11:55;;;;;;;16.17;14.53;;;7.50;1.00;7.90;100881.00;;;;5050351;28;20458;-81
2022/02/10 20:14:25;;;;;;;17.00;15.20;;;7.50;1.00;8.00;100876.00;;;;5060460;28;20916;-82
2022/02/10 20:16:57;;;;;;;17.47;15.57;;;7.40;1.00;8.00;100876.00;;;;5046755;28;20562;-83
2022/02/10 20:19:27;;;;;;;17.80;15.53;;;7.80;1.00;7.90;100874.00;;;;5067703;28;20471;-83
2022/02/10 20:21:56;;;;;;;17.00;14.83;;;7.50;1.00;7.90;100884.00;;;;5055423;28;20455;-86
2022/02/10 20:24:24;;;;;;;20.80;14.97;;;7.40;1.00;7.90;100885.00;;;;5052347;28;20891;-84
2022/02/10 20:26:52;;;;;;;17.67;15.80;;;7.40;1.00;7.90;100906.00;;;;5055078;28;20796;-83
2022/02/10 20:29:21;;;;;;;17.20;14.80;;;7.40;1.00;7.90;100870.00;;;;5073864;28;20462;-82
2022/02/10 20:31:52;;;;;;;20.00;16.03;;;7.40;1.00;8.00;100889.00;;;;5072124;28;20470;-83
2022/02/10 20:34:20;;;;;;;17.73;15.80;;;7.50;1.00;8.00;100888.00;;;;5090186;28;20572;-85
2022/02/10 20:36:49;;;;;;;17.70;15.80;;;7.60;1.00;8.00;100902.00;;;;5077268;28;20468;-85
2022/02/10 20:39:24;;;;;;;22.93;15.87;;;7.80;1.00;8.00;100894.00;;;;5083528;28;20565;-82
2022/02/10 20:42:00;;;;;;;16.83;15.13;;;7.50;1.00;8.00;100866.00;;;;5068851;28;20439;-82
2022/02/10 20:44:29;;;;;;;16.67;14.87;;;7.50;1.00;8.00;100892.00;;;;5077710;28;20531;-83
2022/02/10 20:47:00;;;;;;;16.83;14.70;;;7.50;1.00;8.00;100875.00;;;;5075476;28;20443;-85
2022/02/10 20:49:28;;;;;;;18.13;15.70;;;7.50;1.00;8.00;100880.00;;;;5072851;28;20466;-85
2022/02/10 20:51:58;;;;;;;18.73;15.93;;;7.60;1.00;8.00;100884.00;;;;5072010;28;20802;-85
2022/02/10 20:54:27;;;;;;;17.37;15.27;;;7.50;1.00;8.00;100882.00;;;;5072045;28;20443;-84
2022/02/10 20:56:56;;;;;;;19.13;16.50;;;7.50;1.00;8.00;100879.00;;;;5074031;28;20478;-82
2022/02/10 20:59:30;;;;;;;19.73;17.63;;;7.50;1.00;7.90;100874.00;;;;5060635;28;20471;-85
2022/02/10 21:02:06;;;;;;;21.10;16.50;;;7.50;1.00;7.90;100871.00;;;;5074913;28;20477;-84
2022/02/10 21:04:39;;;;;;;18.77;15.60;;;7.50;1.00;8.00;100876.00;;;;5063107;28;20454;-87
2022/02/10 21:07:13;;;;;;;18.63;16.73;;;7.60;1.00;8.10;100865.00;;;;5074438;28;20522;-84
2022/02/10 21:09:48;;;;;;;22.20;15.20;;;7.60;1.00;7.90;100866.00;;;;5059694;28;20478;-84
2022/02/10 21:12:17;;;;;;;18.33;15.67;;;7.80;1.00;8.00;100870.00;;;;5069863;28;20455;-84
2022/02/10 21:14:46;;;;;;;19.97;16.90;;;7.60;1.00;8.00;100830.00;;;;5058554;28;20470;-85
2022/02/10 21:17:22;;;;;;;20.60;18.00;;;7.50;1.00;8.00;100852.00;;;;5084886;28;20459;-83
2022/02/10 21:19:51;;;;;;;23.53;17.87;;;7.50;1.00;8.00;100868.00;;;;5084480;28;20534;-82
2022/02/10 21:22:21;;;;;;;20.27;17.13;;;7.60;1.00;7.90;100855.00;;;;5047116;28;20454;-83
2022/02/10 21:24:54;;;;;;;18.87;16.37;;;7.90;1.00;8.00;100873.00;;;;5071800;28;20879;-84
2022/02/10 21:27:30;;;;;;;20.33;17.50;;;7.60;1.00;8.00;100867.00;;;;5056330;28;20519;-83
2022/02/10 21:30:03;;;;;;;21.73;18.20;;;7.60;1.00;7.90;100868.00;;;;5066640;28;20940;-82
2022/02/10 21:32:38;;;;;;;21.23;18.37;;;7.70;1.00;7.90;100867.00;;;;5066594;28;20463;-86
2022/02/10 21:35:24;;;;;;;21.27;17.77;;;7.50;1.00;7.90;100825.00;;;;5072424;28;20946;-86
2022/02/10 21:37:57;;;;;;;22.10;18.37;;;7.50;1.00;7.80;100855.00;;;;5069504;28;20514;-83
2022/02/10 21:40:29;;;;;;;20.43;16.73;;;7.40;1.00;7.80;100857.00;;;;5068665;28;21083;-83
2022/02/10 21:59:54;;;;;;;21.30;17.00;;;7.30;1.00;7.70;100831.00;;;;5056448;28;20539;-81
2022/02/10 22:10:59;;;;;;;21.80;17.40;;;7.40;1.00;7.80;100799.00;;;;5068666;28;20550;-84
2022/02/10 22:19:07;;;;;;;24.97;19.00;;;7.70;1.00;7.80;100824.00;;;;5052686;28;20485;-82
2022/02/10 22:21:43;;;;;;;24.17;19.80;;;7.40;1.00;7.70;100815.00;;;;5070286;28;20467;-83
2022/02/10 22:24:14;;;;;;;24.20;19.90;;;7.30;1.00;7.70;100817.00;;;;5062441;28;20510;-82
2022/02/10 22:26:44;;;;;;;26.23;19.97;;;7.30;1.00;7.70;100829.00;;;;5070104;28;20505;-85
2022/02/10 22:29:18;;;;;;;25.73;18.33;;;7.30;1.00;7.70;100815.00;;;;5058905;28;20482;-85
2022/02/10 22:32:03;;;;;;;24.97;20.50;;;7.30;1.00;7.70;100827.00;;;;5051154;28;20487;-85
2022/02/10 22:34:36;;;;;;;28.03;20.00;;;7.30;1.00;7.80;100806.00;;;;5062695;28;20554;-82
2022/02/10 22:37:09;;;;;;;26.53;21.10;;;7.40;1.00;7.90;100804.00;;;;5072932;28;20448;-84
2022/02/10 22:39:42;;;;;;;23.90;19.53;;;7.50;1.00;7.90;100805.00;;;;5049639;28;20480;-82
2022/02/10 22:42:12;;;;;;;27.20;20.80;;;7.50;1.00;7.90;100824.00;;;;5048703;28;20458;-87
2022/02/10 22:44:41;;;;;;;30.87;21.17;;;7.90;1.00;7.80;100815.00;;;;5067882;28;20467;-82
2022/02/10 22:47:10;;;;;;;28.53;21.30;;;7.40;1.00;7.80;100804.00;;;;5066458;28;20486;-83
2022/02/10 22:49:39;;;;;;;23.87;18.87;;;7.40;1.00;7.70;100824.00;;;;5065796;28;20995;-84
2022/02/10 22:52:13;;;;;;;24.70;20.10;;;7.30;1.00;7.70;100826.00;;;;5065807;28;20533;-84
2022/02/10 22:54:41;;;;;;;30.33;21.60;;;7.70;1.00;7.80;100827.00;;;;5057611;28;20458;-84
2022/02/10 22:57:11;;;;;;;27.00;21.93;;;7.30;1.00;7.60;100823.00;;;;5058532;28;20455;-83
2022/02/10 22:59:39;;;;;;;30.87;20.50;;;7.30;1.00;7.50;100803.00;;;;5063459;28;20501;-85
2022/02/10 23:02:08;;;;;;;25.67;20.80;;;7.10;1.00;7.50;100786.00;;;;5060486;28;20566;-84
2022/02/10 23:04:36;;;;;;;26.20;20.60;;;7.10;1.00;7.50;100811.00;;;;5064010;28;20451;-84
2022/02/10 23:07:08;;;;;;;24.07;20.37;;;7.00;1.00;7.40;100806.00;;;;5067125;28;20684;-84
2022/02/10 23:09:48;;;;;;;25.77;20.87;;;7.00;1.00;7.40;100816.00;;;;5070989;28;20483;-85
2022/02/10 23:12:16;;;;;;;27.57;21.43;;;6.90;1.00;7.40;100821.00;;;;5050615;28;20461;-83
2022/02/10 23:14:45;;;;;;;30.17;22.53;;;6.90;1.00;7.50;100825.00;;;;5052074;28;20542;-85
2022/02/10 23:17:13;;;;;;;26.17;20.63;;;7.00;1.00;7.50;100811.00;;;;5067471;28;20460;-83
2022/02/10 23:19:41;;;;;;;29.70;22.50;;;7.00;1.00;7.50;100799.00;;;;5066292;28;20483;-84
2022/02/10 23:22:10;;;;;;;24.33;19.80;;;7.00;1.00;7.50;100810.00;;;;5062855;28;20448;-84
2022/02/10 23:24:39;;;;;;;29.03;23.47;;;7.00;1.00;7.40;100804.00;;;;5066774;28;20966;-83
2022/02/10 23:27:08;;;;;;;28.93;22.20;;;6.90;1.00;7.40;100817.00;;;;5044150;28;21413;-84
2022/02/10 23:29:36;;;;;;;28.53;22.20;;;6.90;1.00;7.30;100811.00;;;;5048394;28;20909;-84
2022/02/10 23:32:05;;;;;;;31.83;22.70;;;6.90;1.00;7.40;100809.00;;;;5066194;28;21162;-85
2022/02/10 23:34:34;;;;;;;26.07;20.70;;;6.90;1.00;7.40;100814.00;;;;5064681;28;20466;-84
2022/02/10 23:37:08;;;;;;;29.77;22.57;;;6.90;1.00;7.30;100776.00;;;;5045768;28;20804;-84
2022/02/10 23:39:39;;;;;;;28.77;22.00;;;6.90;1.00;7.40;100805.00;;;;5063545;28;20633;-84
2022/02/10 23:42:15;;;;;;;29.47;22.03;;;6.90;1.00;7.50;100797.00;;;;5061771;28;20467;-84
2022/02/10 23:44:47;;;;;;;27.90;21.37;;;7.00;1.00;7.40;100801.00;;;;5048864;28;20442;-85
2022/02/10 23:47:20;;;;;;;32.23;23.57;;;7.00;1.00;7.50;100805.00;;;;5055627;28;20451;-83
2022/02/10 23:49:52;;;;;;;33.57;22.70;;;7.00;1.00;7.50;100806.00;;;;5060921;28;20472;-82
2022/02/10 23:52:23;;;;;;;33.00;23.40;;;7.10;1.00;7.50;100808.00;;;;5062276;28;20494;-82
2022/02/10 23:54:57;;;;;;;28.43;23.10;;;7.10;1.00;7.50;100799.00;;;;5065652;28;20459;-82
2022/02/10 23:57:34;;;;;;;30.00;22.67;;;7.10;1.00;7.60;100820.00;;;;5064107;28;20459;-81
